Skip Navigation Links
NOAA logo - Click to go to the NOAA homepage
NOAA's National Weather Service
Alaska Aviation Weather Unit
  NWS logo - Click to go to the NWS homepage
Left Navbar Graphic     22 AKDT = 06 GMT

   
NOAA is celebrating 200 years of science, service, and stewardship. Visit the NOAA 200th celebration Web site to learn more.
USA.gov is the U.S. Government's official Web portal to all Federal, state and local government Web resources and services.
Facebook
NWS on Facebook

Important Change Regarding the AAWU Web Presence

 

Over the last several months, the AAWU has been working to navigate its webpages to a nationally supported server. Security, as well as other needs, have necessitated the change.  We have been given an extension for the site changeover while we diligently work at addressing feedback received. As of July 14, 2017, aawu.arh.noaa.gov will be discontinued. The new AAWU web address is weather.gov/aawu. It is now live and will run in-parallel with the old site until it is discontinued on July 14, 2017. Please continue to send any feedback or questions regarding the new webpages to nws.ar.aawu.webauthors@noaa.gov.  Thank you for your patience during this time of transition.
AAWU Home :: Display TAF Add Bookmark
TAF CYSM 260538Z 2606/2618 VRB03KT P6SM BKN100 PROB30 2609/2615
     VRB15G25KT P6SM -TSRA BKN060CB
    RMK NXT FCST BY 261200Z=

METAR CYSM 260000Z 34005KT 310V010 15SM BKN130 BKN210 25/13 A2986 RMK AC5CI2 ACC ASOCTD SLP117 DENSITY ALT 2000FT= METAR CYSM 260100Z 35005KT 290V360 15SM SCT130 BKN190 24/12 A2986 RMK AC3AC4 ACC ASOCTD SLP116 DENSITY ALT 2000FT= METAR CYSM 260200Z 36004KT 330V030 10SM FEW130 SCT190 24/13 A2986 RMK AC2AC2 FU SLP117 DENSITY ALT 2000FT= METAR CYSM 260300Z 36004KT 12SM FEW110 SCT150 BKN190 22/13 A2986 RMK AC2AC2AC1 FU SLP118 DENSITY ALT 1700FT= METAR CYSM 260400Z 35004KT 12SM BKN110 BKN150 21/14 A2987 RMK AC7AC1 AC TR FU SLP119 DENSITY ALT 1600FT= METAR CYSM 260500Z 00000KT 12SM BKN110 BKN150 20/14 A2987 RMK AC5AC1 FU SLP121 DENSITY ALT 1500FT= METAR CYSM 260600Z VRB02KT 12SM FEW110 SCT150 18/14 A2988 RMK AC1AC2 FU SLP123 DENSITY ALT 1300FT=
 Alaska TAF Map

NOAA's National Weather Service
Alaska Aviation Weather Unit
6930 Sand Lake Road
Anchorage, AK 99502-1845
Disclaimer
Credits
Glossary
Privacy Policy
About Us
Career Opportunities
Contact AAWU Internet Services Site last modified: April, 17th 2012